Aperitivo a Grado

Udine: ghiaccio nella notte, domani torna mite

facebook

ghiaccioPrima nottata davvero fredda in Friuli Venezia Giulia con temperature sotto lo zero quasi dappertutto e trattamento antighiaccio per le autostrade della nostra regione. Una situaizone che non durerà molto ma l’inverno è appena iniziato e stando alle sibille rivedremo presto la neve, anche abbondante. Intanto da domani arrivano temperature più miti e pioggia

Infatti da domani, lunedì 6 dicembre le temperature torneranno su di qualche grado con il sopraggiungere di una perturbazione atlantica. Questa prima ondata di freddo sarà solo l’apripista a una seconda ben più intensa invasione di aria fredda che dovrebbe (condizionale d’obbligo) appostarsi sull’intero nord’Italia intorno alla metà del mese. Infatti passata la perturbazione di cui accennato sopra l’Italia del nord sarà sfiorata (il 10 dicembre) da una profonda depressione artica che investirà soprattutto il centro con neve sui soliti Marche e Abruzzo. Nei giorni successivi la generalessa depressione si allergherà al Nord Italia. Preparate catene e antighiaccio

Riepilogativi giornalieri – rete ARPA FVG / OSMER stampa salva
STAZIONE

ORA

CIELO

TEMPERATURA
minima
[°C]
TEMPERATURA
media
[°C]
TEMPERATURA
massima
[°C]
UMIDITÀ
media
[%]
VENTO
medio
[km/h]
VENTO
massimo
[km/h]
PIOGGIA
totale
[mm]
Barcis 10:00 variabile -5.1 -4.3 -2.4 96 2 4 0.0
Bicinicco 10:00 n. d. -1.6 -0.5 1.3 84 7 16 0.0
Boa Paloma 10:00 sereno 4.9 5.2 6.2 48 13 43 0.0
Bordano 10:00 n. d. -1.0 -0.2 0.6 9 31 0.0
Borgo Grotta Gigante 11:05 sereno -3.5 -1.0 3.9 65 28 0.0
Brugnera 10:00 poco nuvoloso -3.1 -2.2 0.1 97 2 9 0.1
Capriva d.F. 10:00 sereno -1.3 0.0 1.9 67 15 0.0
Cave del Predil 11:05 n. d. -11.4 -9.8 -6.0 99 0.2
Cervignano d.F. 10:00 sereno -2.2 -0.9 1.6 85 5 12 0.0
Chievolis 10:00 variabile -2.4 -1.8 -0.1 0.0
Cividale d.F. 10:00 sereno -0.6 -0.3 0.9 86 21 34 0.0
Codroipo 10:00 sereno -2.2 -0.8 2.3 72 7 19 0.0
Coritis 10:00 n. d. -6.9 -5.9 -3.1 0.0
Enemonzo 10:00 variabile -6.0 -5.0 -3.3 98 0 0.0
Faedis 10:00 sereno -1.5 -0.6 0.7 79 3 12 0.0
Fagagna 10:00 sereno -0.4 0.3 1.4 71 20 31 0.0
Forni di Sopra 10:00 poco nuvoloso -7.8 -6.7 -3.4 96 4 13 0.0
Fossalon di G. 10:00 sereno -1.0 0.1 2.0 76 6 20 0.0
Gemona d.F. 10:00 sereno -1.1 -0.2 0.7 71 17 36 0.0
Gorgo di Latisana 10:00 n. d. -0.9 0.2 1.6 86 5 10 0.0
Gradisca d’Is. 10:00 sereno -3.6 -1.9 1.6 90 5 17 0.0
Grado 10:00 sereno 0.3 1.2 2.6 72 4 0.0
Grado Mare 11:00 n. d. 2.2 3.4 4.9 66 8 17 0.0
Lauzacco 10:00 n. d. -1.1 -0.2 1.2 80 0.0
Lignano 10:00 sereno 2.3 2.9 4.0 73 17 30 0.0
Lussari (1760 m) 10:00 sereno -11.3 -9.6 -8.5 79 0 0.2
Monfalcone 11:00 sereno -1.2 0.6 5.1 80 9 0.0
Muggia 11:05 sereno 2.7 4.3 5.7 43 19 41 0.0
Musi 10:00 n. d. -4.7 -4.0 -1.2 90 0.0
Pala d’Altei (1528 m) 10:00 sereno -8.0 -7.5 -6.4 99 4 11
Palazzolo d.S. 10:00 sereno -1.4 -0.4 1.5 81 7 13 0.0
Paluzza 11:05 n. d. -8.1 -6.0 -0.6 96 0.0
Piancavallo (1275 m) 10:00 coperto -10.8 -9.6 -6.3 81 2 8 0.0
Pontebba 11:05 n. d. -8.1 -6.8 -3.6 95 0.0
Pordenone 10:00 poco nuvoloso -2.1 -1.2 0.7 93 2 8 0.1
Pradamano 04:00 n. d. -3.5 -2.8 -1.9 87 12
S.Vito al Tgl. 10:00 sereno -2.3 -1.2 0.9 91 4 14 0.0
San Pietro al Natisone 11:05 sereno -2.9 -1.3 1.9 75 8 27 0.0
Sgonico 10:00 sereno -3.0 -0.7 2.9 67 7 31 0.0
Talmassons 10:00 sereno -1.0 0.4 2.2 82 9 20 0.0
Tarvisio 10:00 variabile -11.8 -10.4 -6.6 94 2 5 0.0
Tolmezzo 10:00 sereno -4.0 -2.9 -1.6 88 9 21 0.0
Trieste 10:00 sereno 2.9 3.7 4.4 45 12 58 0.0
Udine 10:00 sereno -3.7 -1.7 2.0 91 4 11 0.0
Vivaro 10:00 sereno -1.9 -0.7 2.2 88 7 13 0.0
Zoncolan (1750 m) 10:00 sereno -9.8 -9.2 -8.0 92 4 7 0.0

265